aviador You're here:

CYZE Decoded Metar

GORE BAY in ON, CANADA
Report Time2018-02-22 06:00:00
UTC Time2018-02-22 06:51:02
Flight Rules vfr VFR
Wind330° at 04 kt
W.Decomp.*RWY 29: 2.6 kt HW 3.0 kt RCW
RWY 05: 1.3 kt HW 3.8 kt LCW
W.Rank330° ranks 26
Current wind is below 330° avg. (7.5)
Visibility9999 m
Phenomena:N/A
Clouds:N/A
Expected CloudBase > 800 ft AGL from Temp-Dew spread
CeilingNone
Temp-9°C (ISA -23)
Dew Point-11°C (86% RH)
AAT-13.6°C
QNH1039 hPa
Density Alt-3,048 ft
Elevation633 ft
Report Wrong Elevation
Raw Report
CYZE 220600Z AUTO 33004KT 9SM CLR M09/M11 A3068 RMK SLP406=

Extra information for CYZE:More info

Metar Taf Metar & Taf Last 4 Metars F.Rules Stats Wind Profile Meteogram Temp Stats Airport Information Weather charts Add Link Nearby VenuesMetar ALERT Operation Metar Decoded Social comments